Time;durP1;ratioP1;P1;durP2;ratioP2;P2;SDS_P1;SDS_P2;PMS_P1;PMS_P2;Temp;Humidity;BMP_temperature;BMP_pressure;BME280_temperature;BME280_humidity;BME280_pressure;Samples;Min_cycle;Max_cycle;Signal;HPM_P1;HPM_P2
2022/09/23 00:01:14;;;;;;;0.10;0.10;;;;;;;8.29;100.00;101732.13;5053099;28;20028;-73
2022/09/23 00:03:41;;;;;;;0.08;0.08;;;;;;;8.30;100.00;101730.28;5051770;28;20029;-73
2022/09/23 00:06:09;;;;;;;0.00;0.00;;;;;;;8.35;100.00;101736.25;5049826;28;20079;-73
2022/09/23 00:08:35;;;;;;;0.00;0.00;;;;;;;8.28;100.00;101717.00;5050241;28;20031;-73
2022/09/23 00:11:06;;;;;;;0.10;0.10;;;;;;;8.49;100.00;101736.41;5052749;28;20028;-73
2022/09/23 00:13:32;;;;;;;0.10;0.10;;;;;;;8.55;100.00;101743.25;5044779;28;20036;-73
2022/09/23 00:16:01;;;;;;;0.10;0.10;;;;;;;8.49;100.00;101727.50;5049474;28;20028;-73
2022/09/23 00:18:27;;;;;;;0.10;0.10;;;;;;;8.52;100.00;101733.56;5046644;28;20029;-73
2022/09/23 00:20:52;;;;;;;0.00;0.00;;;;;;;8.53;100.00;101735.28;5054120;28;20039;-73
2022/09/23 00:23:17;;;;;;;0.05;0.05;;;;;;;8.52;100.00;101733.56;5051864;28;20432;-73
2022/09/23 00:25:43;;;;;;;0.10;0.10;;;;;;;8.49;100.00;101731.03;5050359;28;20044;-73
2022/09/23 00:28:08;;;;;;;0.00;0.00;;;;;;;8.51;100.00;101731.81;5049825;28;20090;-73
2022/09/23 00:30:33;;;;;;;0.00;0.00;;;;;;;8.36;100.00;101708.56;5049508;28;20036;-73
2022/09/23 00:32:59;;;;;;;0.10;0.10;;;;;;;8.38;100.00;101728.91;5051331;28;20730;-73
2022/09/23 00:35:24;;;;;;;0.00;0.00;;;;;;;8.26;100.00;101713.56;5049452;28;21300;-73
2022/09/23 00:37:49;;;;;;;0.00;0.00;;;;;;;8.33;100.00;101725.66;5048159;28;20039;-73
2022/09/23 00:40:15;;;;;;;0.00;0.00;;;;;;;8.25;100.00;101717.16;5054633;28;20071;-73
2022/09/23 00:42:48;;;;;;;0.10;0.10;;;;;;;8.17;100.00;101706.00;5050302;28;20382;-73
2022/09/23 00:45:15;;;;;;;0.10;0.10;;;;;;;8.15;100.00;101724.84;5048948;28;20025;-73
2022/09/23 00:47:46;;;;;;;0.10;0.10;;;;;;;8.02;100.00;101724.63;5049565;28;20478;-72
2022/09/23 00:50:24;;;;;;;0.00;0.00;;;;;;;7.99;100.00;101722.09;5059407;28;20073;-73
2022/09/23 00:52:51;;;;;;;0.00;0.00;;;;;;;7.92;100.00;101708.19;5047104;28;20033;-73
2022/09/23 00:55:38;;;;;;;0.10;0.10;;;;;;;7.93;100.00;101709.06;5047085;28;20124;-73
2022/09/23 00:58:06;;;;;;;0.10;0.10;;;;;;;7.90;100.00;101709.22;5044806;28;20367;-73
2022/09/23 01:00:32;;;;;;;0.00;0.00;;;;;;;7.88;100.00;101708.41;5046245;28;20289;-73
2022/09/23 01:02:59;;;;;;;0.10;0.10;;;;;;;7.87;100.00;101712.03;5048213;28;20419;-73
2022/09/23 01:05:24;;;;;;;0.00;0.00;;;;;;;7.90;100.00;101709.22;5052205;28;20622;-73
2022/09/23 01:07:49;;;;;;;0.00;0.00;;;;;;;7.86;100.00;101697.81;5046592;28;20028;-73
2022/09/23 01:10:16;;;;;;;0.10;0.10;;;;;;;7.94;100.00;101711.66;5045189;28;20059;-73
2022/09/23 01:12:59;;;;;;;0.10;0.10;;;;;;;7.91;100.00;101702.91;5041711;28;20108;-73
2022/09/23 01:15:34;;;;;;;0.10;0.10;;;;;;;7.96;100.00;101700.88;5042901;28;20467;-73
2022/09/23 01:18:06;;;;;;;0.10;0.10;;;;;;;7.99;100.00;101706.06;5056000;28;20382;-73
2022/09/23 01:21:08;;;;;;;0.10;0.10;;;;;;;8.01;100.00;101697.94;5049843;28;20036;-73
2022/09/23 01:23:46;;;;;;;0.10;0.10;;;;;;;7.99;100.00;101695.34;5052122;28;20027;-73
2022/09/23 01:26:39;;;;;;;0.10;0.10;;;;;;;7.96;100.00;101699.03;5051107;28;20036;-73
2022/09/23 01:29:41;;;;;;;0.10;0.10;;;;;;;7.97;100.00;101694.56;5052975;28;20029;-73
2022/09/23 01:32:16;;;;;;;0.10;0.10;;;;;;;7.91;100.00;101700.25;5056823;28;20571;-73
2022/09/23 01:34:53;;;;;;;;;;;;;;;7.67;100.00;101700.59;5054959;28;20086;-73
2022/09/23 01:37:41;;;;;;;0.15;0.15;;;;;;;7.55;100.00;101699.41;5051773;28;19916;-73
2022/09/23 01:40:14;;;;;;;0.10;0.10;;;;;;;7.45;100.00;101696.34;5046197;28;20029;-73
2022/09/23 01:42:59;;;;;;;0.10;0.10;;;;;;;7.42;100.00;101695.63;5049485;28;20153;-73
2022/09/23 01:45:32;;;;;;;0.00;0.00;;;;;;;7.45;100.00;101695.47;5051349;28;20060;-73
2022/09/23 01:48:12;;;;;;;0.10;0.10;;;;;;;7.43;100.00;101684.00;5048188;28;20157;-73
2022/09/23 01:50:56;;;;;;;0.00;0.00;;;;;;;7.43;100.00;101679.53;5052332;28;20064;-73
2022/09/23 01:53:43;;;;;;;0.10;0.10;;;;;;;7.43;100.00;101689.34;5059384;28;20077;-73
2022/09/23 01:56:14;;;;;;;0.00;0.00;;;;;;;7.32;100.00;101687.22;5052739;28;20033;-73
2022/09/23 01:58:44;;;;;;;0.00;0.00;;;;;;;7.16;100.00;101666.63;5051542;28;20028;-73
2022/09/23 02:01:13;;;;;;;0.10;0.10;;;;;;;7.19;100.00;101686.97;5053272;28;20067;-73
2022/09/23 02:03:44;;;;;;;0.00;0.00;;;;;;;7.15;100.00;101691.59;5052474;28;20127;-73
2022/09/23 02:06:49;;;;;;;0.00;0.00;;;;;;;7.02;100.00;101675.31;5053981;28;20031;-73
2022/09/23 02:09:17;;;;;;;0.10;0.10;;;;;;;7.17;100.00;101683.50;5057897;28;20045;-73
2022/09/23 02:11:45;;;;;;;0.00;0.00;;;;;;;7.13;100.00;101663.25;5050546;28;20077;-73
2022/09/23 02:14:15;;;;;;;0.00;0.00;;;;;;;7.25;100.00;101672.47;5054325;28;20485;-73
2022/09/23 02:16:46;;;;;;;0.10;0.10;;;;;;;7.18;100.00;101675.44;5051088;28;20491;-72
2022/09/23 02:19:21;;;;;;;0.10;0.10;;;;;;;7.10;100.00;101674.94;5049467;28;20036;-72
2022/09/23 02:21:51;;;;;;;0.00;0.00;;;;;;;7.00;100.00;101655.84;5039672;28;20028;-73
2022/09/23 02:24:26;;;;;;;0.10;0.10;;;;;;;7.10;100.00;101668.75;5058808;28;20406;-73
2022/09/23 02:26:54;;;;;;;0.10;0.10;;;;;;;7.14;100.00;101668.50;5047315;28;20033;-73
2022/09/23 02:29:37;;;;;;;0.10;0.10;;;;;;;7.15;100.00;101672.06;5054818;28;20016;-72
2022/09/23 02:32:13;;;;;;;0.00;0.00;;;;;;;7.11;100.00;101663.31;5048539;28;20035;-73
2022/09/23 02:34:45;;;;;;;0.08;0.08;;;;;;;7.12;100.00;101672.22;5049686;28;20546;-73
2022/09/23 02:37:28;;;;;;;0.10;0.10;;;;;;;7.08;100.00;101666.13;5052030;28;20606;-73
2022/09/23 02:39:59;;;;;;;0.00;0.00;;;;;;;7.16;100.00;101663.06;5059382;28;20032;-73
2022/09/23 02:42:37;;;;;;;0.10;0.10;;;;;;;6.99;100.00;101640.75;5038087;28;20070;-73
2022/09/23 02:45:02;;;;;;;0.00;0.00;;;;;;;7.04;100.00;101645.88;5049230;28;20087;-73
2022/09/23 02:47:30;;;;;;;0.08;0.08;;;;;;;7.11;100.00;101649.97;5047792;28;20033;-73
2022/09/23 02:49:55;;;;;;;0.10;0.10;;;;;;;6.93;100.00;101619.72;5056661;28;20119;-73
2022/09/23 02:52:22;;;;;;;0.10;0.10;;;;;;;7.02;100.00;101648.63;5053922;28;20418;-73
2022/09/23 02:54:48;;;;;;;0.10;0.10;;;;;;;7.04;100.00;101652.09;5048697;28;20071;-73
2022/09/23 02:57:13;;;;;;;0.10;0.10;;;;;;;6.93;100.00;101634.88;5048064;28;20028;-73
2022/09/23 02:59:39;;;;;;;0.13;0.13;;;;;;;7.05;100.00;101643.13;5048102;28;20044;-73
2022/09/23 03:02:19;;;;;;;0.10;0.10;;;;;;;7.06;100.00;101635.97;5049469;28;20086;-73
2022/09/23 03:05:02;;;;;;;0.10;0.10;;;;;;;7.15;100.00;101632.84;5035665;28;20070;-73
2022/09/23 03:07:34;;;;;;;0.10;0.10;;;;;;;7.23;100.00;101629.78;5052554;28;20486;-73
2022/09/23 03:10:15;;;;;;;0.05;0.05;;;;;;;7.32;100.00;101625.78;5046952;28;20064;-73
2022/09/23 03:12:56;;;;;;;0.10;0.10;;;;;;;7.39;100.00;101629.84;5047408;28;20374;-73
2022/09/23 03:15:34;;;;;;;0.10;0.10;;;;;;;7.33;100.00;101609.69;5051952;28;20454;-72
2022/09/23 03:18:15;;;;;;;0.10;0.10;;;;;;;7.28;100.00;101587.69;5053411;28;20043;-73
2022/09/23 03:21:04;;;;;;;0.20;0.15;;;;;;;7.59;100.00;101626.16;5051109;28;20120;-72
2022/09/23 03:23:34;;;;;;;0.10;0.10;;;;;;;7.62;100.00;101625.13;5050466;28;20437;-72
2022/09/23 03:26:03;;;;;;;0.10;0.10;;;;;;;7.65;100.00;101620.50;5054221;28;20037;-73
2022/09/23 03:28:29;;;;;;;0.10;0.10;;;;;;;7.47;100.00;101592.03;5049836;28;20032;-72
2022/09/23 03:30:55;;;;;;;0.00;0.00;;;;;;;7.44;100.00;101586.84;5049511;28;20449;-73
2022/09/23 03:33:23;;;;;;;0.10;0.10;;;;;;;7.63;100.00;101616.16;5052696;28;20021;-72
2022/09/23 03:38:43;;;;;;;0.10;0.10;;;;;;;7.58;100.00;101620.88;5054573;28;20040;-72
2022/09/23 03:41:10;;;;;;;0.10;0.10;;;;;;;7.59;100.00;101611.91;5043906;28;20027;-73
2022/09/23 03:43:37;;;;;;;0.10;0.10;;;;;;;7.57;100.00;101595.97;5058475;28;20028;-73
2022/09/23 03:46:03;;;;;;;0.10;0.10;;;;;;;7.62;100.00;101604.63;5050238;28;20040;-73
2022/09/23 03:48:28;;;;;;;0.10;0.10;;;;;;;7.68;100.00;101608.75;5055807;28;20029;-72
2022/09/23 03:50:53;;;;;;;0.00;0.00;;;;;;;7.70;100.00;101606.00;5059658;28;20136;-72
2022/09/23 03:53:20;;;;;;;0.10;0.10;;;;;;;7.58;100.00;101605.72;5055525;28;20035;-72
2022/09/23 03:55:45;;;;;;;0.00;0.00;;;;;;;7.63;100.00;101610.81;5047094;28;20186;-72
2022/09/23 03:58:11;;;;;;;0.20;0.10;;;;;;;7.50;100.00;101602.56;5049413;28;20463;-72
2022/09/23 04:00:36;;;;;;;0.10;0.10;;;;;;;7.52;100.00;101605.19;5052094;28;20789;-72
2022/09/23 04:03:02;;;;;;;0.10;0.10;;;;;;;7.45;100.00;101609.97;5052822;28;20087;-73
2022/09/23 04:05:27;;;;;;;0.10;0.10;;;;;;;7.42;100.00;101600.31;5051746;28;20039;-72
2022/09/23 04:07:53;;;;;;;0.10;0.10;;;;;;;7.33;100.00;101598.13;5051653;28;20054;-72
2022/09/23 04:10:19;;;;;;;0.10;0.10;;;;;;;7.11;100.00;101577.88;5050650;28;20053;-73
2022/09/23 04:12:44;;;;;;;0.10;0.10;;;;;;;7.10;100.00;101585.97;5045825;28;20120;-73
2022/09/23 04:15:09;;;;;;;0.10;0.10;;;;;;;7.05;100.00;101581.72;5050171;28;20040;-72
2022/09/23 04:17:35;;;;;;;0.10;0.10;;;;;;;7.08;100.00;101602.03;5052030;28;20421;-73
2022/09/23 04:20:00;;;;;;;0.17;0.17;;;;;;;7.11;100.00;101599.22;5051451;28;20530;-73
2022/09/23 04:22:25;;;;;;;0.10;0.10;;;;;;;7.08;100.00;101585.19;5051119;28;20394;-72
2022/09/23 04:24:51;;;;;;;0.10;0.10;;;;;;;7.14;100.00;101603.56;5050751;28;20464;-73
2022/09/23 04:27:16;;;;;;;0.10;0.10;;;;;;;7.01;100.00;101592.66;5051427;28;20180;-73
2022/09/23 04:29:41;;;;;;;0.10;0.10;;;;;;;7.01;100.00;101592.66;5053463;28;20028;-73
2022/09/23 04:32:07;;;;;;;0.10;0.10;;;;;;;6.97;100.00;101599.06;5055701;28;20032;-72
2022/09/23 04:34:32;;;;;;;0.10;0.10;;;;;;;6.90;100.00;101596.72;5053646;28;20024;-74
2022/09/23 04:36:57;;;;;;;0.10;0.10;;;;;;;6.91;100.00;101592.22;5053946;28;20029;-73
2022/09/23 04:39:22;;;;;;;0.10;0.10;;;;;;;6.95;100.00;101593.78;5050064;28;20099;-72
2022/09/23 04:41:48;;;;;;;0.00;0.00;;;;;;;6.96;100.00;101578.66;5051665;28;20024;-73
2022/09/23 04:44:14;;;;;;;0.10;0.10;;;;;;;7.07;100.00;101581.63;5056213;28;20039;-73
2022/09/23 04:46:40;;;;;;;0.10;0.10;;;;;;;7.08;100.00;101585.19;5051032;28;20032;-73
2022/09/23 04:49:06;;;;;;;0.10;0.10;;;;;;;7.04;100.00;101581.78;5055463;28;20067;-73
2022/09/23 04:51:32;;;;;;;0.10;0.10;;;;;;;7.00;100.00;101588.25;5052001;28;20052;-73
2022/09/23 04:53:57;;;;;;;0.10;0.10;;;;;;;6.94;100.00;101578.72;5055030;28;20099;-73
2022/09/23 04:56:25;;;;;;;0.10;0.10;;;;;;;6.98;100.00;101587.47;5053910;28;20113;-73
2022/09/23 04:58:51;;;;;;;0.10;0.10;;;;;;;6.85;100.00;101566.72;5058254;28;20020;-73
2022/09/23 05:01:16;;;;;;;0.00;0.00;;;;;;;6.91;100.00;101586.88;5049246;28;20033;-73
2022/09/23 05:03:42;;;;;;;0.10;0.10;;;;;;;6.77;100.00;101584.91;5054900;28;20037;-73
2022/09/23 05:06:10;;;;;;;0.10;0.10;;;;;;;6.74;100.00;101571.75;5049134;28;20410;-73
2022/09/23 05:08:36;;;;;;;0.00;0.00;;;;;;;6.67;100.00;101559.63;5052753;28;20475;-73
2022/09/23 05:11:05;;;;;;;0.00;0.00;;;;;;;6.88;100.00;101587.06;5057346;28;20035;-73
2022/09/23 05:13:34;;;;;;;0.10;0.10;;;;;;;6.92;100.00;101580.59;5054644;28;20048;-73
2022/09/23 05:16:05;;;;;;;0.10;0.10;;;;;;;6.96;100.00;101579.50;5061165;28;20082;-73
2022/09/23 05:18:31;;;;;;;0.10;0.10;;;;;;;7.10;100.00;101593.97;5050773;28;20033;-73
2022/09/23 05:20:56;;;;;;;0.10;0.10;;;;;;;7.14;100.00;101591.06;5051293;28;20058;-73
2022/09/23 05:23:22;;;;;;;0.10;0.10;;;;;;;7.14;100.00;101595.56;5050923;28;20470;-74
2022/09/23 05:25:54;;;;;;;0.10;0.10;;;;;;;7.15;100.00;101587.44;5052071;28;20033;-74
2022/09/23 05:28:19;;;;;;;0.80;0.10;;;;;;;7.15;100.00;101583.94;5052303;28;20439;-73
2022/09/23 05:30:45;;;;;;;0.10;0.10;;;;;;;7.23;100.00;101587.03;5054288;28;20729;-74
2022/09/23 05:33:10;;;;;;;0.10;0.10;;;;;;;7.37;100.00;101591.66;5053557;28;20062;-73
2022/09/23 05:35:36;;;;;;;0.08;0.08;;;;;;;7.45;100.00;101593.94;5053199;28;20043;-74
2022/09/23 05:38:01;;;;;;;0.10;0.10;;;;;;;7.47;100.00;101600.06;5056749;28;20024;-74
2022/09/23 05:40:26;;;;;;;0.10;0.10;;;;;;;7.49;100.00;101596.38;5056592;28;20083;-73
2022/09/23 05:42:51;;;;;;;0.10;0.10;;;;;;;7.53;100.00;101607.75;5049960;28;20076;-74
2022/09/23 05:45:20;;;;;;;0.10;0.10;;;;;;;7.45;100.00;101588.59;5055267;28;20348;-74
2022/09/23 05:47:45;;;;;;;0.13;0.13;;;;;;;7.54;100.00;101598.81;5056553;28;20075;-76
2022/09/23 05:50:11;;;;;;;0.10;0.10;;;;;;;7.60;100.00;101602.94;5056857;28;20036;-71
2022/09/23 05:52:36;;;;;;;0.10;0.10;;;;;;;7.54;100.00;101590.78;5051227;28;20383;-72
2022/09/23 05:55:01;;;;;;;0.10;0.10;;;;;;;7.62;100.00;101598.38;5047957;28;20160;-73
2022/09/23 05:57:27;;;;;;;0.10;0.10;;;;;;;7.63;100.00;101600.13;5046584;28;20027;-73
2022/09/23 05:59:52;;;;;;;0.00;0.00;;;;;;;7.71;100.00;101602.38;5049017;28;20020;-73
2022/09/23 06:02:17;;;;;;;0.10;0.10;;;;;;;7.76;100.00;101613.69;5044999;28;20032;-73
2022/09/23 06:04:43;;;;;;;0.10;0.10;;;;;;;7.75;100.00;101591.47;5051613;28;20111;-73
2022/09/23 06:07:09;;;;;;;0.10;0.10;;;;;;;7.89;100.00;101611.22;5052022;28;20033;-73
2022/09/23 06:09:34;;;;;;;0.10;0.10;;;;;;;7.93;100.00;101607.44;5057989;28;20029;-73
2022/09/23 06:11:59;;;;;;;0.00;0.00;;;;;;;7.99;100.00;101609.78;5051849;28;20040;-73
2022/09/23 06:14:25;;;;;;;0.10;0.10;;;;;;;8.08;100.00;101608.41;5057988;28;20519;-72
2022/09/23 06:16:50;;;;;;;0.10;0.10;;;;;;;8.13;100.00;101601.00;5057890;28;20035;-72
2022/09/23 06:19:15;;;;;;;0.10;0.10;;;;;;;8.18;100.00;101603.41;5059325;28;20123;-72
2022/09/23 06:21:41;;;;;;;0.15;0.15;;;;;;;8.19;100.00;101595.31;5051593;28;20029;-73
2022/09/23 06:24:06;;;;;;;0.20;0.10;;;;;;;8.28;100.00;101596.63;5055527;28;20119;-73
2022/09/23 06:26:33;;;;;;;0.10;0.10;;;;;;;8.25;100.00;101589.59;5054394;28;20033;-73
2022/09/23 06:29:00;;;;;;;0.00;0.00;;;;;;;8.19;100.00;101565.91;5046125;28;20032;-73
2022/09/23 06:31:26;;;;;;;0.10;0.10;;;;;;;8.39;100.00;101577.28;5052569;28;20059;-72
2022/09/23 06:33:51;;;;;;;0.10;0.10;;;;;;;8.38;100.00;101576.38;5059120;28;20914;-72
2022/09/23 06:36:16;;;;;;;0.10;0.10;;;;;;;8.51;100.00;101586.44;5055774;28;20111;-73
2022/09/23 06:38:48;;;;;;;0.10;0.10;;;;;;;8.62;100.00;101589.34;5058048;28;20051;-73
2022/09/23 06:41:13;;;;;;;0.10;0.10;;;;;;;8.66;100.00;101595.41;5056538;28;20024;-74
2022/09/23 06:43:39;;;;;;;0.10;0.10;;;;;;;8.76;100.00;101601.09;5052615;28;20040;-73
2022/09/23 06:46:06;;;;;;;0.10;0.10;;;;;;;8.85;100.00;101597.88;5052030;28;20029;-73
2022/09/23 06:48:34;;;;;;;0.10;0.10;;;;;;;8.94;100.00;101607.19;5053838;28;20036;-73
2022/09/23 06:51:01;;;;;;;0.10;0.10;;;;;;;8.98;100.00;101598.03;5062519;28;20035;-73
2022/09/23 06:53:30;;;;;;;0.10;0.10;;;;;;;9.11;100.00;101590.13;5064912;28;20054;-73
2022/09/23 06:55:59;;;;;;;0.15;0.10;;;;;;;9.13;100.00;101588.22;5045240;28;20025;-73
2022/09/23 06:58:25;;;;;;;0.10;0.10;;;;;;;9.24;100.00;101583.06;5046300;28;20017;-73
2022/09/23 07:00:51;;;;;;;0.10;0.10;;;;;;;9.38;100.00;101595.63;5050108;28;20066;-73
2022/09/23 07:03:17;;;;;;;0.10;0.10;;;;;;;9.41;100.00;101578.47;5052762;28;20475;-73
2022/09/23 07:05:42;;;;;;;0.10;0.10;;;;;;;9.27;100.00;101541.84;5049868;28;20044;-73
2022/09/23 07:08:11;;;;;;;0.00;0.00;;;;;;;9.52;100.00;101588.56;5049714;28;20025;-73
2022/09/23 07:10:36;;;;;;;0.10;0.10;;;;;;;9.64;100.00;101581.59;5049193;28;20032;-73
2022/09/23 07:13:04;;;;;;;0.00;0.00;;;;;;;9.79;100.00;101598.53;5049969;28;20024;-74
2022/09/23 07:15:31;;;;;;;0.00;0.00;;;;;;;9.85;100.00;101593.66;5053948;28;20043;-74
2022/09/23 07:17:56;;;;;;;0.10;0.10;;;;;;;9.88;100.00;101595.28;5063541;28;20030;-75
2022/09/23 07:20:22;;;;;;;0.00;0.00;;;;;;;9.94;100.00;101602.06;5047360;28;20363;-74
2022/09/23 07:22:51;;;;;;;0.20;0.20;;;;;;;9.72;100.00;101560.50;5054115;28;20356;-75
2022/09/23 07:25:17;;;;;;;0.10;0.10;;;;;;;9.87;100.00;101567.59;5059717;28;20028;-75
2022/09/23 07:27:42;;;;;;;0.10;0.10;;;;;;;10.03;100.00;101590.75;5048416;28;20241;-76
2022/09/23 07:30:08;;;;;;;0.10;0.10;;;;;;;9.92;100.00;101569.97;5050385;28;20095;-75
2022/09/23 07:32:33;;;;;;;0.05;0.05;;;;;;;10.17;100.00;101593.44;5054291;28;20028;-75
2022/09/23 07:34:58;;;;;;;0.10;0.10;;;;;;;10.08;100.00;101569.88;5054521;28;20036;-76
2022/09/23 07:37:24;;;;;;;0.10;0.10;;;;;;;10.24;100.00;101599.25;5052749;28;20443;-76
2022/09/23 07:39:49;;;;;;;0.10;0.10;;;;;;;10.39;99.51;101604.63;5054663;28;20044;-76
2022/09/23 07:42:15;;;;;;;0.10;0.10;;;;;;;10.33;100.00;101584.38;5057886;28;20035;-76
2022/09/23 07:44:42;;;;;;;0.10;0.10;;;;;;;10.52;99.32;101596.63;5053098;28;20035;-75
2022/09/23 07:47:08;;;;;;;0.10;0.10;;;;;;;10.55;96.10;101583.00;5059967;28;20027;-75
2022/09/23 07:49:34;;;;;;;0.10;0.10;;;;;;;10.71;96.19;101598.97;5057318;28;20523;-74
2022/09/23 07:51:59;;;;;;;0.10;0.10;;;;;;;10.70;95.84;101575.75;5052176;28;20024;-76
2022/09/23 07:54:28;;;;;;;0.10;0.10;;;;;;;10.72;94.66;101590.81;5057638;28;20096;-74
2022/09/23 07:56:54;;;;;;;0.05;0.05;;;;;;;10.86;94.38;101586.34;5049476;28;20136;-76
2022/09/23 07:59:19;;;;;;;0.10;0.10;;;;;;;11.01;95.47;101584.44;5051611;28;20495;-75
2022/09/23 08:01:47;;;;;;;0.10;0.10;;;;;;;11.02;92.92;101592.38;5056237;28;20040;-75
2022/09/23 08:04:19;;;;;;;0.10;0.10;;;;;;;10.99;93.54;101575.63;5050581;28;20112;-75
2022/09/23 08:06:50;;;;;;;0.10;0.10;;;;;;;11.13;91.94;101586.28;5054204;28;20029;-75
2022/09/23 08:09:17;;;;;;;0.10;0.10;;;;;;;11.34;91.37;101586.63;5050272;28;20036;-76
2022/09/23 08:11:43;;;;;;;0.10;0.10;;;;;;;11.37;93.21;101593.66;5055275;28;20108;-73
2022/09/23 08:14:10;;;;;;;0.10;0.10;;;;;;;11.54;90.98;101597.81;5049533;28;20119;-74
2022/09/23 08:16:36;;;;;;;0.00;0.00;;;;;;;11.45;90.66;101577.81;5054312;28;20035;-77
2022/09/23 08:19:01;;;;;;;0.10;0.10;;;;;;;11.66;90.31;101602.34;5059776;28;20117;-75
2022/09/23 08:21:26;;;;;;;0.10;0.10;;;;;;;11.72;90.32;101598.38;5049715;28;20128;-75
2022/09/23 08:23:52;;;;;;;0.00;0.00;;;;;;;11.56;89.97;101563.63;5052972;28;20028;-75
2022/09/23 08:26:17;;;;;;;0.10;0.10;;;;;;;11.94;88.22;101604.91;5054919;28;20750;-74
2022/09/23 08:28:44;;;;;;;0.10;0.10;;;;;;;11.95;87.46;101607.50;5053859;28;20387;-72
2022/09/23 08:31:09;;;;;;;0.03;0.03;;;;;;;11.96;87.52;101590.38;5066395;28;20024;-76
2022/09/23 08:33:34;;;;;;;0.00;0.00;;;;;;;12.00;88.61;101601.81;5051640;28;20050;-75
2022/09/23 08:36:01;;;;;;;0.10;0.10;;;;;;;12.11;88.98;101604.59;5049022;28;20032;-74
2022/09/23 08:38:26;;;;;;;0.20;0.10;;;;;;;12.14;88.12;101599.00;5053772;28;20522;-74
2022/09/23 08:40:54;;;;;;;0.00;0.00;;;;;;;12.09;87.86;101578.75;5060352;28;20037;-78
2022/09/23 08:43:25;;;;;;;0.10;0.10;;;;;;;12.20;87.88;101605.75;5040485;28;20025;-77
2022/09/23 08:45:52;;;;;;;0.10;0.10;;;;;;;12.17;87.75;101605.13;5054894;28;20406;-73
2022/09/23 08:48:32;;;;;;;0.10;0.10;;;;;;;12.25;88.26;101584.75;5048628;28;20376;-74
2022/09/23 08:51:02;;;;;;;0.10;0.10;;;;;;;12.34;86.73;101572.44;5051292;28;20028;-78
2022/09/23 08:53:38;;;;;;;0.10;0.10;;;;;;;12.70;87.97;101600.31;5034500;28;20391;-74
2022/09/23 08:56:12;;;;;;;0.08;0.08;;;;;;;12.89;85.39;101601.63;5048919;28;20029;-74
2022/09/23 08:59:03;;;;;;;0.00;0.00;;;;;;;12.94;83.51;101599.44;5049344;28;20031;-76
2022/09/23 09:01:32;;;;;;;0.10;0.10;;;;;;;13.12;84.82;101593.63;5052538;28;20087;-75
2022/09/23 09:04:00;;;;;;;0.10;0.10;;;;;;;13.17;83.95;101594.97;5048822;28;20087;-76
2022/09/23 09:06:33;;;;;;;0.10;0.10;;;;;;;13.27;83.19;101600.50;5047670;28;20116;-76
2022/09/23 09:09:00;;;;;;;0.10;0.10;;;;;;;13.17;83.90;101572.56;5050210;28;20059;-72
2022/09/23 09:11:33;;;;;;;0.20;0.10;;;;;;;13.34;82.03;101577.50;5054168;28;20032;-74
2022/09/23 09:14:12;;;;;;;0.10;0.10;;;;;;;13.65;82.22;101588.59;5054981;28;20030;-77
2022/09/23 09:16:55;;;;;;;0.20;0.10;;;;;;;13.82;83.09;101596.34;5049435;28;20055;-76
2022/09/23 09:19:31;;;;;;;0.00;0.00;;;;;;;14.01;81.82;101593.88;5045135;28;20121;-76
2022/09/23 09:21:56;;;;;;;0.00;0.00;;;;;;;14.00;80.03;101575.97;5051113;28;20063;-75
2022/09/23 09:24:31;;;;;;;0.00;0.00;;;;;;;14.06;81.39;101582.69;5055926;28;20132;-75
2022/09/23 09:26:56;;;;;;;0.10;0.10;;;;;;;14.27;81.19;101581.97;5048807;28;20070;-75
2022/09/23 09:29:31;;;;;;;0.08;0.08;;;;;;;14.40;78.62;101583.53;5046710;28;20360;-75
2022/09/23 09:31:57;;;;;;;0.00;0.00;;;;;;;14.46;76.34;101579.44;5043433;28;20475;-74
2022/09/23 09:34:40;;;;;;;0.00;0.00;;;;;;;14.52;75.32;101578.06;5049087;28;20040;-75
2022/09/23 09:37:17;;;;;;;0.10;0.10;;;;;;;14.75;77.27;101576.19;5050516;28;20074;-75
2022/09/23 09:39:42;;;;;;;0.08;0.08;;;;;;;15.02;78.89;101564.03;5053002;28;20033;-74
2022/09/23 09:42:37;;;;;;;0.10;0.10;;;;;;;15.41;77.93;101566.13;5061726;28;20126;-76
2022/09/23 09:45:09;;;;;;;0.10;0.10;;;;;;;15.25;73.72;101559.31;5047104;28;20059;-73
2022/09/23 09:47:47;;;;;;;0.05;0.00;;;;;;;15.34;72.64;101552.28;5047369;28;20040;-73
2022/09/23 09:50:20;;;;;;;0.10;0.10;;;;;;;15.62;73.00;101551.69;5041764;28;20124;-75
2022/09/23 09:52:45;;;;;;;0.10;0.10;;;;;;;15.65;72.26;101541.44;5052762;28;20460;-76
2022/09/23 09:55:13;;;;;;;0.10;0.10;;;;;;;15.75;72.48;101549.63;5057388;28;20028;-75
2022/09/23 09:57:44;;;;;;;0.00;0.00;;;;;;;15.97;72.99;101548.59;5052772;28;20021;-73
2022/09/23 10:00:30;;;;;;;0.10;0.10;;;;;;;16.29;71.63;101549.38;5053770;28;20103;-76
2022/09/23 10:03:00;;;;;;;0.00;0.00;;;;;;;15.85;68.77;101522.59;5044392;28;20497;-74
2022/09/23 10:05:30;;;;;;;0.00;0.00;;;;;;;16.08;69.87;101557.63;5061762;28;20418;-73
2022/09/23 10:07:55;;;;;;;0.10;0.10;;;;;;;16.18;69.92;101553.06;5054860;28;20040;-73
2022/09/23 10:10:24;;;;;;;0.03;0.03;;;;;;;15.97;68.66;101551.31;5051353;28;20025;-76
2022/09/23 10:12:51;;;;;;;0.00;0.00;;;;;;;16.08;71.21;101558.47;5053231;28;20029;-74
2022/09/23 10:15:41;;;;;;;0.00;0.00;;;;;;;16.01;68.92;101527.53;5054688;28;20059;-73
2022/09/23 10:18:18;;;;;;;0.00;0.00;;;;;;;16.28;69.63;101553.94;5061609;28;20054;-68
2022/09/23 10:20:45;;;;;;;0.10;0.10;;;;;;;16.39;67.87;101544.84;5057763;28;20055;-67
2022/09/23 10:23:15;;;;;;;0.00;0.00;;;;;;;16.23;69.15;101548.09;5054147;28;20020;-71
2022/09/23 10:25:41;;;;;;;0.03;0.03;;;;;;;16.30;67.67;101556.50;5056670;28;20082;-75
2022/09/23 10:28:36;;;;;;;0.00;0.00;;;;;;;16.32;69.38;101554.50;5054334;28;20060;-71
2022/09/23 10:31:05;;;;;;;0.00;0.00;;;;;;;16.24;68.83;101547.09;5049096;28;20036;-72
2022/09/23 10:33:30;;;;;;;0.10;0.10;;;;;;;16.23;67.87;101553.50;5049211;28;20059;-72
2022/09/23 10:35:56;;;;;;;0.00;0.00;;;;;;;16.19;66.33;101533.97;5055485;28;20036;-72
2022/09/23 10:38:22;;;;;;;0.10;0.05;;;;;;;16.40;66.20;101543.84;5054995;28;20405;-73
2022/09/23 10:46:40;;;;;;;0.00;0.00;;;;;;;16.68;66.73;101549.44;5056093;28;20741;-77
2022/09/23 10:49:17;;;;;;;0.10;0.10;;;;;;;16.75;64.06;101545.16;5054292;28;20082;-73
2022/09/23 10:51:57;;;;;;;0.00;0.00;;;;;;;16.66;65.08;101545.16;5060580;28;20033;-72
2022/09/23 10:54:34;;;;;;;0.00;0.00;;;;;;;16.70;66.54;101528.44;5052700;28;20037;-71
2022/09/23 10:57:36;;;;;;;0.00;0.00;;;;;;;16.84;64.20;101539.84;5048383;28;20044;-73
2022/09/23 11:00:15;;;;;;;0.00;0.00;;;;;;;16.86;64.53;101527.00;5047691;28;20036;-73
2022/09/23 11:03:13;;;;;;;0.00;0.00;;;;;;;16.78;63.26;101531.31;5054126;28;20526;-73
2022/09/23 11:06:10;;;;;;;0.00;0.00;;;;;;;16.99;61.97;101532.16;5046574;28;20029;-72
2022/09/23 11:08:49;;;;;;;0.00;0.00;;;;;;;16.67;61.90;101534.16;5059248;28;20040;-72
2022/09/23 11:11:40;;;;;;;0.00;0.00;;;;;;;16.60;63.45;101530.28;5052555;28;20207;-70
2022/09/23 11:14:37;;;;;;;0.00;0.00;;;;;;;16.46;62.70;101510.75;5056561;28;20024;-71
2022/09/23 11:17:40;;;;;;;0.00;0.00;;;;;;;16.82;63.04;101534.59;5055209;28;20033;-73
2022/09/23 11:20:33;;;;;;;0.00;0.00;;;;;;;16.97;63.02;101526.03;5049500;28;20422;-73
2022/09/23 11:23:36;;;;;;;0.08;0.08;;;;;;;16.72;61.34;101531.00;5056086;28;20031;-71
2022/09/23 11:26:13;;;;;;;0.00;0.00;;;;;;;16.69;61.54;101515.03;5054486;28;20032;-72
2022/09/23 11:28:51;;;;;;;0.10;0.10;;;;;;;16.85;61.13;101522.56;5053162;28;20060;-72
2022/09/23 11:31:26;;;;;;;0.10;0.10;;;;;;;16.95;60.78;101515.28;5058776;28;20379;-71
2022/09/23 11:34:00;;;;;;;0.00;0.00;;;;;;;17.23;61.48;101512.69;5040922;28;20355;-74
2022/09/23 11:36:31;;;;;;;0.00;0.00;;;;;;;17.28;60.76;101512.25;5052858;28;20059;-71
2022/09/23 11:38:59;;;;;;;0.00;0.00;;;;;;;17.34;61.63;101517.97;5047266;28;20035;-71
2022/09/23 11:41:27;;;;;;;0.00;0.00;;;;;;;17.61;59.95;101521.69;5053917;28;20082;-72
2022/09/23 11:44:06;;;;;;;0.00;0.00;;;;;;;17.48;60.25;101518.47;5049613;28;20129;-71
2022/09/23 11:46:36;;;;;;;0.10;0.10;;;;;;;17.45;60.73;101508.78;5055515;28;20133;-72
2022/09/23 11:49:08;;;;;;;0.00;0.00;;;;;;;17.66;58.49;101507.69;5051763;28;20026;-72